sensor_id;sensor_type;location;lat;lon;timestamp;P1;durP1;ratioP1;P2;durP2;ratioP2
65558;SDS011;52203;51.998;5.140;2024-03-25T00:01:59;2.92;;;1.00;;
65558;SDS011;52203;51.998;5.140;2024-03-25T00:04:25;3.55;;;0.98;;
65558;SDS011;52203;51.998;5.140;2024-03-25T00:06:50;4.93;;;1.30;;
65558;SDS011;52203;51.998;5.140;2024-03-25T00:09:17;3.42;;;1.17;;
65558;SDS011;52203;51.998;5.140;2024-03-25T00:11:43;2.75;;;0.98;;
65558;SDS011;52203;51.998;5.140;2024-03-25T00:14:08;3.40;;;1.13;;
65558;SDS011;52203;51.998;5.140;2024-03-25T00:16:34;3.58;;;0.90;;
65558;SDS011;52203;51.998;5.140;2024-03-25T00:19:00;3.42;;;0.88;;
65558;SDS011;52203;51.998;5.140;2024-03-25T00:21:26;3.35;;;1.33;;
65558;SDS011;52203;51.998;5.140;2024-03-25T00:23:52;2.97;;;1.05;;
65558;SDS011;52203;51.998;5.140;2024-03-25T00:26:17;2.90;;;0.90;;
65558;SDS011;52203;51.998;5.140;2024-03-25T00:28:43;2.42;;;0.90;;
65558;SDS011;52203;51.998;5.140;2024-03-25T00:31:11;4.57;;;1.10;;
65558;SDS011;52203;51.998;5.140;2024-03-25T00:33:36;3.97;;;1.00;;
65558;SDS011;52203;51.998;5.140;2024-03-25T00:36:01;2.38;;;1.02;;
65558;SDS011;52203;51.998;5.140;2024-03-25T00:38:27;1.88;;;0.90;;
65558;SDS011;52203;51.998;5.140;2024-03-25T00:40:53;2.95;;;1.00;;
65558;SDS011;52203;51.998;5.140;2024-03-25T00:43:18;2.88;;;1.00;;
65558;SDS011;52203;51.998;5.140;2024-03-25T00:45:45;3.47;;;1.10;;
65558;SDS011;52203;51.998;5.140;2024-03-25T00:48:13;3.10;;;0.88;;
65558;SDS011;52203;51.998;5.140;2024-03-25T00:50:39;2.28;;;0.80;;
65558;SDS011;52203;51.998;5.140;2024-03-25T00:53:05;2.17;;;0.90;;
65558;SDS011;52203;51.998;5.140;2024-03-25T00:55:30;5.45;;;1.15;;
65558;SDS011;52203;51.998;5.140;2024-03-25T00:57:56;1.85;;;1.00;;
65558;SDS011;52203;51.998;5.140;2024-03-25T01:00:21;2.95;;;0.90;;
65558;SDS011;52203;51.998;5.140;2024-03-25T01:02:47;2.20;;;0.80;;
65558;SDS011;52203;51.998;5.140;2024-03-25T01:05:12;4.55;;;1.13;;
65558;SDS011;52203;51.998;5.140;2024-03-25T01:07:38;2.75;;;1.00;;
65558;SDS011;52203;51.998;5.140;2024-03-25T01:10:04;3.03;;;1.17;;
65558;SDS011;52203;51.998;5.140;2024-03-25T01:12:31;2.60;;;1.00;;
65558;SDS011;52203;51.998;5.140;2024-03-25T01:14:56;3.17;;;1.00;;
65558;SDS011;52203;51.998;5.140;2024-03-25T01:17:24;2.85;;;1.58;;
65558;SDS011;52203;51.998;5.140;2024-03-25T01:19:49;4.80;;;1.17;;
65558;SDS011;52203;51.998;5.140;2024-03-25T01:22:15;2.30;;;0.85;;
65558;SDS011;52203;51.998;5.140;2024-03-25T01:24:40;4.13;;;1.17;;
65558;SDS011;52203;51.998;5.140;2024-03-25T01:27:06;2.80;;;0.93;;
65558;SDS011;52203;51.998;5.140;2024-03-25T01:29:32;3.55;;;1.20;;
65558;SDS011;52203;51.998;5.140;2024-03-25T01:31:57;3.25;;;1.00;;
65558;SDS011;52203;51.998;5.140;2024-03-25T01:34:24;3.65;;;1.20;;
65558;SDS011;52203;51.998;5.140;2024-03-25T01:36:52;3.40;;;0.98;;
65558;SDS011;52203;51.998;5.140;2024-03-25T01:39:18;2.97;;;0.95;;
65558;SDS011;52203;51.998;5.140;2024-03-25T01:41:46;3.05;;;1.00;;
65558;SDS011;52203;51.998;5.140;2024-03-25T01:44:11;3.90;;;0.88;;
65558;SDS011;52203;51.998;5.140;2024-03-25T01:46:37;3.25;;;1.00;;
65558;SDS011;52203;51.998;5.140;2024-03-25T01:49:03;4.43;;;1.20;;
65558;SDS011;52203;51.998;5.140;2024-03-25T01:51:29;2.92;;;1.00;;
65558;SDS011;52203;51.998;5.140;2024-03-25T01:53:55;1.80;;;0.90;;
65558;SDS011;52203;51.998;5.140;2024-03-25T01:56:22;3.90;;;1.00;;
65558;SDS011;52203;51.998;5.140;2024-03-25T01:58:49;3.83;;;1.00;;
65558;SDS011;52203;51.998;5.140;2024-03-25T02:01:15;2.75;;;0.90;;
65558;SDS011;52203;51.998;5.140;2024-03-25T02:03:44;2.83;;;1.00;;
65558;SDS011;52203;51.998;5.140;2024-03-25T02:06:12;3.10;;;1.15;;
65558;SDS011;52203;51.998;5.140;2024-03-25T02:08:40;3.75;;;1.02;;
65558;SDS011;52203;51.998;5.140;2024-03-25T02:11:06;1.98;;;0.80;;
65558;SDS011;52203;51.998;5.140;2024-03-25T02:13:32;2.08;;;0.80;;
65558;SDS011;52203;51.998;5.140;2024-03-25T02:16:00;2.25;;;0.95;;
65558;SDS011;52203;51.998;5.140;2024-03-25T02:18:25;2.25;;;1.00;;
65558;SDS011;52203;51.998;5.140;2024-03-25T02:20:51;3.25;;;0.95;;
65558;SDS011;52203;51.998;5.140;2024-03-25T02:23:16;3.55;;;1.00;;
65558;SDS011;52203;51.998;5.140;2024-03-25T02:25:49;3.83;;;1.25;;
65558;SDS011;52203;51.998;5.140;2024-03-25T02:28:14;2.92;;;1.00;;
65558;SDS011;52203;51.998;5.140;2024-03-25T02:30:40;3.55;;;0.90;;
65558;SDS011;52203;51.998;5.140;2024-03-25T02:33:05;2.67;;;1.13;;
65558;SDS011;52203;51.998;5.140;2024-03-25T02:35:31;2.65;;;0.82;;
65558;SDS011;52203;51.998;5.140;2024-03-25T02:37:57;4.15;;;1.05;;
65558;SDS011;52203;51.998;5.140;2024-03-25T02:40:23;3.33;;;0.93;;
65558;SDS011;52203;51.998;5.140;2024-03-25T02:42:51;3.08;;;1.20;;
65558;SDS011;52203;51.998;5.140;2024-03-25T02:45:16;3.58;;;0.95;;
65558;SDS011;52203;51.998;5.140;2024-03-25T02:47:43;3.35;;;0.80;;
65558;SDS011;52203;51.998;5.140;2024-03-25T02:50:09;3.35;;;0.90;;
65558;SDS011;52203;51.998;5.140;2024-03-25T02:52:34;3.08;;;1.00;;
65558;SDS011;52203;51.998;5.140;2024-03-25T02:55:03;3.47;;;0.88;;
65558;SDS011;52203;51.998;5.140;2024-03-25T02:57:28;2.83;;;0.95;;
65558;SDS011;52203;51.998;5.140;2024-03-25T02:59:54;2.55;;;1.20;;
65558;SDS011;52203;51.998;5.140;2024-03-25T03:02:19;2.15;;;0.90;;
65558;SDS011;52203;51.998;5.140;2024-03-25T03:04:45;3.63;;;1.05;;
65558;SDS011;52203;51.998;5.140;2024-03-25T03:07:10;3.05;;;0.75;;
65558;SDS011;52203;51.998;5.140;2024-03-25T03:09:36;3.15;;;0.90;;
65558;SDS011;52203;51.998;5.140;2024-03-25T03:12:02;3.70;;;1.30;;
65558;SDS011;52203;51.998;5.140;2024-03-25T03:14:27;5.35;;;1.30;;
65558;SDS011;52203;51.998;5.140;2024-03-25T03:16:53;4.38;;;1.10;;
65558;SDS011;52203;51.998;5.140;2024-03-25T03:19:21;3.08;;;0.80;;
65558;SDS011;52203;51.998;5.140;2024-03-25T03:21:46;2.42;;;0.90;;
65558;SDS011;52203;51.998;5.140;2024-03-25T03:24:12;3.67;;;1.02;;
65558;SDS011;52203;51.998;5.140;2024-03-25T03:26:38;4.15;;;1.20;;
65558;SDS011;52203;51.998;5.140;2024-03-25T03:29:03;3.28;;;0.80;;
65558;SDS011;52203;51.998;5.140;2024-03-25T03:31:29;3.38;;;0.90;;
65558;SDS011;52203;51.998;5.140;2024-03-25T03:33:55;2.67;;;0.82;;
65558;SDS011;52203;51.998;5.140;2024-03-25T03:36:21;3.10;;;1.00;;
65558;SDS011;52203;51.998;5.140;2024-03-25T03:38:49;3.70;;;0.82;;
65558;SDS011;52203;51.998;5.140;2024-03-25T03:41:16;2.08;;;0.90;;
65558;SDS011;52203;51.998;5.140;2024-03-25T03:43:42;3.67;;;1.35;;
65558;SDS011;52203;51.998;5.140;2024-03-25T03:46:07;3.13;;;0.80;;
65558;SDS011;52203;51.998;5.140;2024-03-25T03:48:33;2.90;;;0.98;;
65558;SDS011;52203;51.998;5.140;2024-03-25T03:50:58;4.43;;;0.98;;
65558;SDS011;52203;51.998;5.140;2024-03-25T03:53:24;2.85;;;0.95;;
65558;SDS011;52203;51.998;5.140;2024-03-25T03:55:57;2.88;;;0.80;;
65558;SDS011;52203;51.998;5.140;2024-03-25T03:58:24;2.85;;;1.08;;
65558;SDS011;52203;51.998;5.140;2024-03-25T04:00:50;2.95;;;1.00;;
65558;SDS011;52203;51.998;5.140;2024-03-25T04:03:16;4.05;;;0.80;;
65558;SDS011;52203;51.998;5.140;2024-03-25T04:05:41;4.15;;;1.10;;
65558;SDS011;52203;51.998;5.140;2024-03-25T04:08:07;2.10;;;0.70;;
65558;SDS011;52203;51.998;5.140;2024-03-25T04:10:33;2.90;;;0.82;;
65558;SDS011;52203;51.998;5.140;2024-03-25T04:12:59;2.08;;;0.98;;
65558;SDS011;52203;51.998;5.140;2024-03-25T04:15:24;2.80;;;0.98;;
65558;SDS011;52203;51.998;5.140;2024-03-25T04:17:52;1.92;;;0.70;;
65558;SDS011;52203;51.998;5.140;2024-03-25T04:20:18;3.28;;;0.80;;
65558;SDS011;52203;51.998;5.140;2024-03-25T04:22:44;4.00;;;1.02;;
65558;SDS011;52203;51.998;5.140;2024-03-25T04:25:11;3.13;;;0.80;;
65558;SDS011;52203;51.998;5.140;2024-03-25T04:27:40;4.38;;;0.85;;
65558;SDS011;52203;51.998;5.140;2024-03-25T04:30:12;3.13;;;0.75;;
65558;SDS011;52203;51.998;5.140;2024-03-25T04:32:38;4.55;;;0.90;;
65558;SDS011;52203;51.998;5.140;2024-03-25T04:35:06;4.13;;;0.93;;
65558;SDS011;52203;51.998;5.140;2024-03-25T04:37:35;3.00;;;1.10;;
65558;SDS011;52203;51.998;5.140;2024-03-25T04:40:01;2.63;;;1.00;;
65558;SDS011;52203;51.998;5.140;2024-03-25T04:42:27;2.22;;;0.85;;
65558;SDS011;52203;51.998;5.140;2024-03-25T04:45:01;2.53;;;0.98;;
65558;SDS011;52203;51.998;5.140;2024-03-25T04:47:26;1.70;;;0.77;;
65558;SDS011;52203;51.998;5.140;2024-03-25T04:49:52;3.13;;;1.00;;
65558;SDS011;52203;51.998;5.140;2024-03-25T04:52:17;2.28;;;0.70;;
65558;SDS011;52203;51.998;5.140;2024-03-25T04:54:43;2.90;;;0.80;;
65558;SDS011;52203;51.998;5.140;2024-03-25T04:57:09;1.95;;;0.90;;
65558;SDS011;52203;51.998;5.140;2024-03-25T04:59:34;2.75;;;0.70;;
65558;SDS011;52203;51.998;5.140;2024-03-25T05:02:00;3.38;;;0.90;;
65558;SDS011;52203;51.998;5.140;2024-03-25T05:04:25;2.30;;;0.68;;
65558;SDS011;52203;51.998;5.140;2024-03-25T05:06:51;2.35;;;0.88;;
65558;SDS011;52203;51.998;5.140;2024-03-25T05:09:17;2.00;;;1.00;;
65558;SDS011;52203;51.998;5.140;2024-03-25T05:11:42;1.98;;;1.08;;
65558;SDS011;52203;51.998;5.140;2024-03-25T05:14:08;2.53;;;0.88;;
65558;SDS011;52203;51.998;5.140;2024-03-25T05:16:34;3.55;;;1.05;;
65558;SDS011;52203;51.998;5.140;2024-03-25T05:18:59;2.78;;;0.82;;
65558;SDS011;52203;51.998;5.140;2024-03-25T05:21:25;2.42;;;0.90;;
65558;SDS011;52203;51.998;5.140;2024-03-25T05:23:50;4.00;;;0.98;;
65558;SDS011;52203;51.998;5.140;2024-03-25T05:26:16;3.67;;;0.80;;
65558;SDS011;52203;51.998;5.140;2024-03-25T05:28:41;1.88;;;0.80;;
65558;SDS011;52203;51.998;5.140;2024-03-25T05:31:07;3.08;;;1.10;;
65558;SDS011;52203;51.998;5.140;2024-03-25T05:33:36;3.30;;;1.08;;
65558;SDS011;52203;51.998;5.140;2024-03-25T05:36:02;2.25;;;0.80;;
65558;SDS011;52203;51.998;5.140;2024-03-25T05:38:28;1.75;;;0.80;;
65558;SDS011;52203;51.998;5.140;2024-03-25T05:40:54;3.17;;;0.90;;
65558;SDS011;52203;51.998;5.140;2024-03-25T05:43:20;2.75;;;0.80;;
65558;SDS011;52203;51.998;5.140;2024-03-25T05:45:55;1.13;;;0.57;;
65558;SDS011;52203;51.998;5.140;2024-03-25T05:48:21;3.50;;;0.95;;
65558;SDS011;52203;51.998;5.140;2024-03-25T05:53:26;3.42;;;0.90;;
65558;SDS011;52203;51.998;5.140;2024-03-25T05:55:52;2.17;;;0.80;;
65558;SDS011;52203;51.998;5.140;2024-03-25T05:58:17;3.83;;;0.77;;
65558;SDS011;52203;51.998;5.140;2024-03-25T06:00:43;3.13;;;0.80;;
65558;SDS011;52203;51.998;5.140;2024-03-25T06:03:08;2.50;;;0.88;;
65558;SDS011;52203;51.998;5.140;2024-03-25T06:05:34;1.90;;;0.85;;
65558;SDS011;52203;51.998;5.140;2024-03-25T06:07:59;2.78;;;0.80;;
65558;SDS011;52203;51.998;5.140;2024-03-25T06:10:25;3.38;;;0.77;;
65558;SDS011;52203;51.998;5.140;2024-03-25T06:12:50;3.83;;;0.88;;
65558;SDS011;52203;51.998;5.140;2024-03-25T06:15:16;2.95;;;0.80;;
65558;SDS011;52203;51.998;5.140;2024-03-25T06:17:41;3.22;;;0.80;;
65558;SDS011;52203;51.998;5.140;2024-03-25T06:20:09;2.53;;;1.00;;
65558;SDS011;52203;51.998;5.140;2024-03-25T06:22:35;3.38;;;0.90;;
65558;SDS011;52203;51.998;5.140;2024-03-25T06:25:01;3.17;;;1.00;;
65558;SDS011;52203;51.998;5.140;2024-03-25T06:27:26;1.85;;;0.75;;
65558;SDS011;52203;51.998;5.140;2024-03-25T06:29:52;1.70;;;0.88;;
65558;SDS011;52203;51.998;5.140;2024-03-25T06:32:37;2.05;;;0.68;;
65558;SDS011;52203;51.998;5.140;2024-03-25T06:35:21;3.20;;;0.80;;
65558;SDS011;52203;51.998;5.140;2024-03-25T06:37:47;4.05;;;0.95;;
65558;SDS011;52203;51.998;5.140;2024-03-25T06:40:12;2.53;;;0.95;;
65558;SDS011;52203;51.998;5.140;2024-03-25T06:42:38;4.82;;;1.05;;
65558;SDS011;52203;51.998;5.140;2024-03-25T06:45:03;2.63;;;0.70;;
65558;SDS011;52203;51.998;5.140;2024-03-25T06:47:29;3.65;;;1.20;;
65558;SDS011;52203;51.998;5.140;2024-03-25T06:49:54;3.47;;;0.90;;
65558;SDS011;52203;51.998;5.140;2024-03-25T06:52:20;2.33;;;0.70;;
65558;SDS011;52203;51.998;5.140;2024-03-25T06:54:47;3.70;;;1.05;;
65558;SDS011;52203;51.998;5.140;2024-03-25T06:57:13;3.03;;;0.90;;
65558;SDS011;52203;51.998;5.140;2024-03-25T06:59:38;3.38;;;0.85;;
65558;SDS011;52203;51.998;5.140;2024-03-25T07:02:04;3.35;;;0.85;;
65558;SDS011;52203;51.998;5.140;2024-03-25T07:04:30;2.88;;;0.90;;
65558;SDS011;52203;51.998;5.140;2024-03-25T07:06:56;2.90;;;1.10;;
65558;SDS011;52203;51.998;5.140;2024-03-25T07:09:21;2.72;;;0.80;;
65558;SDS011;52203;51.998;5.140;2024-03-25T07:11:47;3.20;;;0.90;;
65558;SDS011;52203;51.998;5.140;2024-03-25T07:14:13;3.55;;;1.20;;
65558;SDS011;52203;51.998;5.140;2024-03-25T07:16:38;3.80;;;0.88;;
65558;SDS011;52203;51.998;5.140;2024-03-25T07:19:04;3.08;;;0.90;;
65558;SDS011;52203;51.998;5.140;2024-03-25T07:21:29;3.47;;;1.00;;
65558;SDS011;52203;51.998;5.140;2024-03-25T07:23:55;2.85;;;1.08;;
65558;SDS011;52203;51.998;5.140;2024-03-25T07:26:22;2.50;;;0.90;;
65558;SDS011;52203;51.998;5.140;2024-03-25T07:28:48;3.08;;;1.30;;
65558;SDS011;52203;51.998;5.140;2024-03-25T07:31:16;4.55;;;0.98;;
65558;SDS011;52203;51.998;5.140;2024-03-25T07:33:42;4.47;;;1.13;;
65558;SDS011;52203;51.998;5.140;2024-03-25T07:36:08;3.22;;;1.13;;
65558;SDS011;52203;51.998;5.140;2024-03-25T07:38:34;2.63;;;0.80;;
65558;SDS011;52203;51.998;5.140;2024-03-25T07:41:03;4.32;;;1.00;;
65558;SDS011;52203;51.998;5.140;2024-03-25T07:43:29;3.90;;;1.10;;
65558;SDS011;52203;51.998;5.140;2024-03-25T07:45:55;8.85;;;1.52;;
65558;SDS011;52203;51.998;5.140;2024-03-25T07:48:20;4.55;;;1.17;;
65558;SDS011;52203;51.998;5.140;2024-03-25T07:50:46;3.13;;;1.08;;
65558;SDS011;52203;51.998;5.140;2024-03-25T07:53:11;4.93;;;1.10;;
65558;SDS011;52203;51.998;5.140;2024-03-25T07:55:37;4.93;;;1.00;;
65558;SDS011;52203;51.998;5.140;2024-03-25T07:58:05;2.40;;;0.90;;
65558;SDS011;52203;51.998;5.140;2024-03-25T08:00:31;8.05;;;1.30;;
65558;SDS011;52203;51.998;5.140;2024-03-25T08:02:56;4.47;;;1.10;;
65558;SDS011;52203;51.998;5.140;2024-03-25T08:05:22;2.83;;;1.10;;
65558;SDS011;52203;51.998;5.140;2024-03-25T08:07:47;5.20;;;1.27;;
65558;SDS011;52203;51.998;5.140;2024-03-25T08:10:13;3.92;;;1.10;;
65558;SDS011;52203;51.998;5.140;2024-03-25T08:12:41;6.85;;;1.00;;
65558;SDS011;52203;51.998;5.140;2024-03-25T08:15:06;5.18;;;1.10;;
65558;SDS011;52203;51.998;5.140;2024-03-25T08:17:33;5.82;;;1.20;;
65558;SDS011;52203;51.998;5.140;2024-03-25T08:19:58;3.58;;;0.98;;
65558;SDS011;52203;51.998;5.140;2024-03-25T08:22:24;4.10;;;1.30;;
65558;SDS011;52203;51.998;5.140;2024-03-25T08:24:49;4.45;;;1.10;;
65558;SDS011;52203;51.998;5.140;2024-03-25T08:27:14;5.72;;;1.05;;
65558;SDS011;52203;51.998;5.140;2024-03-25T08:29:40;4.40;;;1.27;;
65558;SDS011;52203;51.998;5.140;2024-03-25T08:32:06;4.45;;;1.17;;
65558;SDS011;52203;51.998;5.140;2024-03-25T08:34:34;4.90;;;0.95;;
65558;SDS011;52203;51.998;5.140;2024-03-25T08:37:00;4.38;;;1.30;;
65558;SDS011;52203;51.998;5.140;2024-03-25T08:39:25;6.60;;;1.38;;
65558;SDS011;52203;51.998;5.140;2024-03-25T08:58:40;4.07;;;1.30;;
65558;SDS011;52203;51.998;5.140;2024-03-25T09:01:05;2.88;;;0.93;;
65558;SDS011;52203;51.998;5.140;2024-03-25T09:03:31;3.78;;;1.10;;
65558;SDS011;52203;51.998;5.140;2024-03-25T09:05:57;6.07;;;1.33;;
65558;SDS011;52203;51.998;5.140;2024-03-25T09:08:23;3.50;;;1.00;;
65558;SDS011;52203;51.998;5.140;2024-03-25T09:10:48;4.18;;;1.23;;
65558;SDS011;52203;51.998;5.140;2024-03-25T09:13:31;3.08;;;1.05;;
65558;SDS011;52203;51.998;5.140;2024-03-25T09:15:57;3.75;;;1.38;;
65558;SDS011;52203;51.998;5.140;2024-03-25T09:18:23;4.72;;;1.35;;
65558;SDS011;52203;51.998;5.140;2024-03-25T09:20:48;3.58;;;1.05;;
65558;SDS011;52203;51.998;5.140;2024-03-25T09:23:14;3.67;;;1.17;;
65558;SDS011;52203;51.998;5.140;2024-03-25T09:25:39;4.60;;;1.27;;
65558;SDS011;52203;51.998;5.140;2024-03-25T09:28:05;5.95;;;1.23;;
65558;SDS011;52203;51.998;5.140;2024-03-25T09:30:31;2.90;;;1.08;;
65558;SDS011;52203;51.998;5.140;2024-03-25T09:32:57;5.38;;;1.05;;
65558;SDS011;52203;51.998;5.140;2024-03-25T09:35:22;4.13;;;1.20;;
65558;SDS011;52203;51.998;5.140;2024-03-25T09:37:48;1.92;;;0.98;;
65558;SDS011;52203;51.998;5.140;2024-03-25T09:40:13;3.40;;;1.10;;
65558;SDS011;52203;51.998;5.140;2024-03-25T09:42:49;4.22;;;1.48;;
65558;SDS011;52203;51.998;5.140;2024-03-25T09:45:19;3.03;;;1.30;;
65558;SDS011;52203;51.998;5.140;2024-03-25T09:47:49;4.35;;;1.45;;
65558;SDS011;52203;51.998;5.140;2024-03-25T09:50:16;3.28;;;1.25;;
65558;SDS011;52203;51.998;5.140;2024-03-25T09:52:45;3.60;;;1.17;;
65558;SDS011;52203;51.998;5.140;2024-03-25T09:55:11;4.72;;;1.40;;
65558;SDS011;52203;51.998;5.140;2024-03-25T09:57:36;3.72;;;1.20;;
65558;SDS011;52203;51.998;5.140;2024-03-25T10:00:04;3.55;;;1.17;;
65558;SDS011;52203;51.998;5.140;2024-03-25T10:02:33;3.38;;;1.30;;
65558;SDS011;52203;51.998;5.140;2024-03-25T10:05:01;3.35;;;1.13;;
65558;SDS011;52203;51.998;5.140;2024-03-25T10:07:28;4.10;;;1.23;;
65558;SDS011;52203;51.998;5.140;2024-03-25T10:09:53;3.40;;;1.10;;
65558;SDS011;52203;51.998;5.140;2024-03-25T10:12:19;2.38;;;1.00;;
65558;SDS011;52203;51.998;5.140;2024-03-25T10:14:45;3.53;;;1.30;;
65558;SDS011;52203;51.998;5.140;2024-03-25T10:17:10;3.55;;;1.13;;
65558;SDS011;52203;51.998;5.140;2024-03-25T10:19:36;2.33;;;1.10;;
65558;SDS011;52203;51.998;5.140;2024-03-25T10:22:11;2.85;;;1.08;;
65558;SDS011;52203;51.998;5.140;2024-03-25T10:24:37;2.78;;;1.10;;
65558;SDS011;52203;51.998;5.140;2024-03-25T10:27:09;2.83;;;1.00;;
65558;SDS011;52203;51.998;5.140;2024-03-25T10:29:36;3.42;;;1.10;;
65558;SDS011;52203;51.998;5.140;2024-03-25T10:32:02;2.92;;;1.13;;
65558;SDS011;52203;51.998;5.140;2024-03-25T10:34:29;5.30;;;1.40;;
65558;SDS011;52203;51.998;5.140;2024-03-25T10:36:58;3.50;;;1.30;;
65558;SDS011;52203;51.998;5.140;2024-03-25T10:39:25;4.10;;;1.30;;
65558;SDS011;52203;51.998;5.140;2024-03-25T10:41:55;4.15;;;1.10;;
65558;SDS011;52203;51.998;5.140;2024-03-25T10:44:23;3.40;;;1.30;;
65558;SDS011;52203;51.998;5.140;2024-03-25T10:46:50;3.78;;;1.30;;
65558;SDS011;52203;51.998;5.140;2024-03-25T10:51:52;4.20;;;1.35;;
65558;SDS011;52203;51.998;5.140;2024-03-25T10:54:19;3.03;;;1.40;;
65558;SDS011;52203;51.998;5.140;2024-03-25T10:56:46;2.55;;;1.10;;
65558;SDS011;52203;51.998;5.140;2024-03-25T10:59:16;3.50;;;1.15;;
65558;SDS011;52203;51.998;5.140;2024-03-25T11:01:43;3.05;;;1.20;;
65558;SDS011;52203;51.998;5.140;2024-03-25T11:04:09;2.90;;;1.20;;
65558;SDS011;52203;51.998;5.140;2024-03-25T11:06:36;3.28;;;1.20;;
65558;SDS011;52203;51.998;5.140;2024-03-25T11:09:02;3.88;;;1.13;;
65558;SDS011;52203;51.998;5.140;2024-03-25T11:11:31;2.30;;;1.23;;
65558;SDS011;52203;51.998;5.140;2024-03-25T11:14:02;3.47;;;1.52;;
65558;SDS011;52203;51.998;5.140;2024-03-25T11:16:29;2.50;;;1.23;;
65558;SDS011;52203;51.998;5.140;2024-03-25T11:19:00;2.83;;;1.10;;
65558;SDS011;52203;51.998;5.140;2024-03-25T11:21:27;3.57;;;1.50;;
65558;SDS011;52203;51.998;5.140;2024-03-25T11:23:53;3.25;;;1.27;;
65558;SDS011;52203;51.998;5.140;2024-03-25T11:26:19;3.70;;;1.33;;
65558;SDS011;52203;51.998;5.140;2024-03-25T11:28:55;3.10;;;0.85;;
65558;SDS011;52203;51.998;5.140;2024-03-25T11:31:21;2.72;;;1.10;;
65558;SDS011;52203;51.998;5.140;2024-03-25T11:33:49;2.88;;;1.25;;
65558;SDS011;52203;51.998;5.140;2024-03-25T11:36:15;3.53;;;1.38;;
65558;SDS011;52203;51.998;5.140;2024-03-25T11:38:40;2.38;;;1.10;;
65558;SDS011;52203;51.998;5.140;2024-03-25T11:41:08;3.78;;;1.40;;
65558;SDS011;52203;51.998;5.140;2024-03-25T11:43:36;2.38;;;1.20;;
65558;SDS011;52203;51.998;5.140;2024-03-25T11:46:01;3.75;;;1.70;;
65558;SDS011;52203;51.998;5.140;2024-03-25T11:48:28;2.17;;;1.10;;
65558;SDS011;52203;51.998;5.140;2024-03-25T11:50:54;2.92;;;1.10;;
65558;SDS011;52203;51.998;5.140;2024-03-25T11:53:19;3.33;;;1.30;;
65558;SDS011;52203;51.998;5.140;2024-03-25T11:55:45;2.58;;;1.10;;
65558;SDS011;52203;51.998;5.140;2024-03-25T11:58:12;3.17;;;1.02;;
65558;SDS011;52203;51.998;5.140;2024-03-25T12:00:47;3.45;;;1.48;;
65558;SDS011;52203;51.998;5.140;2024-03-25T12:03:16;5.28;;;2.00;;
65558;SDS011;52203;51.998;5.140;2024-03-25T12:05:45;3.67;;;1.52;;
65558;SDS011;52203;51.998;5.140;2024-03-25T12:08:11;3.65;;;1.58;;
65558;SDS011;52203;51.998;5.140;2024-03-25T12:10:37;4.50;;;2.03;;
65558;SDS011;52203;51.998;5.140;2024-03-25T12:13:22;4.32;;;2.08;;
65558;SDS011;52203;51.998;5.140;2024-03-25T12:15:52;4.65;;;2.42;;
65558;SDS011;52203;51.998;5.140;2024-03-25T12:18:18;7.25;;;2.50;;
65558;SDS011;52203;51.998;5.140;2024-03-25T12:20:46;6.03;;;2.70;;
65558;SDS011;52203;51.998;5.140;2024-03-25T12:23:12;4.38;;;2.15;;
65558;SDS011;52203;51.998;5.140;2024-03-25T12:25:38;6.25;;;2.35;;
65558;SDS011;52203;51.998;5.140;2024-03-25T12:28:10;4.95;;;2.35;;
65558;SDS011;52203;51.998;5.140;2024-03-25T12:30:48;5.13;;;2.33;;
65558;SDS011;52203;51.998;5.140;2024-03-25T12:33:16;7.13;;;2.30;;
65558;SDS011;52203;51.998;5.140;2024-03-25T12:35:44;5.80;;;2.28;;
65558;SDS011;52203;51.998;5.140;2024-03-25T12:40:48;4.07;;;2.20;;
65558;SDS011;52203;51.998;5.140;2024-03-25T12:43:16;5.78;;;2.65;;
65558;SDS011;52203;51.998;5.140;2024-03-25T12:45:42;5.25;;;2.83;;
65558;SDS011;52203;51.998;5.140;2024-03-25T12:48:08;4.97;;;2.17;;
65558;SDS011;52203;51.998;5.140;2024-03-25T12:50:34;4.85;;;2.42;;
65558;SDS011;52203;51.998;5.140;2024-03-25T12:53:00;4.50;;;2.13;;
65558;SDS011;52203;51.998;5.140;2024-03-25T12:55:27;5.07;;;2.38;;
65558;SDS011;52203;51.998;5.140;2024-03-25T12:57:54;4.65;;;2.30;;
65558;SDS011;52203;51.998;5.140;2024-03-25T13:00:19;3.88;;;2.30;;
65558;SDS011;52203;51.998;5.140;2024-03-25T13:02:45;6.47;;;2.58;;
65558;SDS011;52203;51.998;5.140;2024-03-25T13:05:10;4.25;;;2.13;;
65558;SDS011;52203;51.998;5.140;2024-03-25T13:07:36;6.70;;;2.20;;
65558;SDS011;52203;51.998;5.140;2024-03-25T13:10:01;5.07;;;2.35;;
65558;SDS011;52203;51.998;5.140;2024-03-25T13:12:29;5.10;;;2.20;;
65558;SDS011;52203;51.998;5.140;2024-03-25T13:14:55;4.40;;;2.00;;
65558;SDS011;52203;51.998;5.140;2024-03-25T13:17:21;4.50;;;2.00;;
65558;SDS011;52203;51.998;5.140;2024-03-25T13:19:46;4.60;;;2.00;;
65558;SDS011;52203;51.998;5.140;2024-03-25T13:22:12;4.70;;;2.00;;
65558;SDS011;52203;51.998;5.140;2024-03-25T13:24:37;4.75;;;2.20;;
65558;SDS011;52203;51.998;5.140;2024-03-25T13:27:03;5.70;;;2.30;;
65558;SDS011;52203;51.998;5.140;2024-03-25T13:29:29;6.63;;;2.40;;
65558;SDS011;52203;51.998;5.140;2024-03-25T13:31:54;4.95;;;2.00;;
65558;SDS011;52203;51.998;5.140;2024-03-25T13:34:20;6.43;;;2.47;;
65558;SDS011;52203;51.998;5.140;2024-03-25T13:36:45;5.70;;;2.10;;
65558;SDS011;52203;51.998;5.140;2024-03-25T13:39:11;5.15;;;2.13;;
65558;SDS011;52203;51.998;5.140;2024-03-25T13:41:37;4.95;;;2.03;;
65558;SDS011;52203;51.998;5.140;2024-03-25T13:44:03;6.32;;;2.20;;
65558;SDS011;52203;51.998;5.140;2024-03-25T13:46:29;6.22;;;2.47;;
65558;SDS011;52203;51.998;5.140;2024-03-25T13:48:54;6.78;;;2.08;;
65558;SDS011;52203;51.998;5.140;2024-03-25T13:51:20;4.45;;;1.88;;
65558;SDS011;52203;51.998;5.140;2024-03-25T13:53:45;4.28;;;2.10;;
65558;SDS011;52203;51.998;5.140;2024-03-25T13:56:10;5.82;;;2.10;;
65558;SDS011;52203;51.998;5.140;2024-03-25T13:58:36;5.78;;;2.05;;
65558;SDS011;52203;51.998;5.140;2024-03-25T14:01:01;6.10;;;2.17;;
65558;SDS011;52203;51.998;5.140;2024-03-25T14:03:27;4.32;;;2.00;;
65558;SDS011;52203;51.998;5.140;2024-03-25T14:05:52;4.25;;;1.98;;
65558;SDS011;52203;51.998;5.140;2024-03-25T14:08:18;5.35;;;2.20;;
65558;SDS011;52203;51.998;5.140;2024-03-25T14:10:43;4.80;;;2.25;;
65558;SDS011;52203;51.998;5.140;2024-03-25T14:13:09;7.13;;;2.25;;
65558;SDS011;52203;51.998;5.140;2024-03-25T14:15:34;4.65;;;2.10;;
65558;SDS011;52203;51.998;5.140;2024-03-25T14:18:00;4.32;;;1.95;;
65558;SDS011;52203;51.998;5.140;2024-03-25T14:20:25;3.70;;;2.03;;
65558;SDS011;52203;51.998;5.140;2024-03-25T14:22:51;5.65;;;1.83;;
65558;SDS011;52203;51.998;5.140;2024-03-25T14:25:16;5.80;;;2.10;;
65558;SDS011;52203;51.998;5.140;2024-03-25T14:27:42;5.30;;;2.17;;
65558;SDS011;52203;51.998;5.140;2024-03-25T14:30:07;4.03;;;1.50;;
65558;SDS011;52203;51.998;5.140;2024-03-25T14:32:35;4.68;;;1.70;;
65558;SDS011;52203;51.998;5.140;2024-03-25T14:35:03;5.88;;;1.85;;
65558;SDS011;52203;51.998;5.140;2024-03-25T14:37:29;4.38;;;1.77;;
65558;SDS011;52203;51.998;5.140;2024-03-25T14:39:55;3.15;;;1.40;;
65558;SDS011;52203;51.998;5.140;2024-03-25T14:42:20;4.90;;;1.73;;
65558;SDS011;52203;51.998;5.140;2024-03-25T14:44:46;5.50;;;1.55;;
65558;SDS011;52203;51.998;5.140;2024-03-25T14:47:11;4.20;;;1.70;;
65558;SDS011;52203;51.998;5.140;2024-03-25T14:49:37;2.95;;;1.50;;
65558;SDS011;52203;51.998;5.140;2024-03-25T14:52:03;4.25;;;1.60;;
65558;SDS011;52203;51.998;5.140;2024-03-25T14:54:34;4.05;;;1.60;;
65558;SDS011;52203;51.998;5.140;2024-03-25T14:57:00;3.63;;;1.40;;
65558;SDS011;52203;51.998;5.140;2024-03-25T14:59:26;3.78;;;1.65;;
65558;SDS011;52203;51.998;5.140;2024-03-25T15:01:52;3.30;;;1.30;;
65558;SDS011;52203;51.998;5.140;2024-03-25T15:04:17;4.85;;;1.33;;
65558;SDS011;52203;51.998;5.140;2024-03-25T15:06:43;2.60;;;1.42;;
65558;SDS011;52203;51.998;5.140;2024-03-25T15:09:08;3.38;;;1.48;;